Time;durP1;ratioP1;P1;durP2;ratioP2;P2;SDS_P1;SDS_P2;PMS_P1;PMS_P2;Temp;Humidity;BMP_temperature;BMP_pressure;BME280_temperature;BME280_humidity;BME280_pressure;Samples;Min_cycle;Max_cycle;Signal;HPM_P1;HPM_P2
2022/08/21 00:01:15;;;;;;;6.20;2.90;;;;;;;;;;5067532;28;20029;-56
2022/08/21 00:03:41;;;;;;;5.57;3.03;;;;;;;;;;5051417;28;20063;-56
2022/08/21 00:06:07;;;;;;;8.82;4.18;;;;;;;;;;5059731;28;20029;-56
2022/08/21 00:08:33;;;;;;;7.40;4.30;;;;;;;;;;5060234;28;20475;-56
2022/08/21 00:10:58;;;;;;;9.55;4.32;;;;;;;;;;5067313;28;20035;-56
2022/08/21 00:13:25;;;;;;;5.60;3.25;;;;;;;;;;5070708;28;20055;-56
2022/08/21 00:15:50;;;;;;;6.45;3.33;;;;;;;;;;5072499;28;20024;-56
2022/08/21 00:18:17;;;;;;;6.90;3.15;;;;;;;;;;5070225;28;20023;-55
2022/08/21 00:20:43;;;;;;;5.38;3.05;;;;;;;;;;5066234;28;20036;-56
2022/08/21 00:23:09;;;;;;;5.45;2.83;;;;;;;;;;5069265;28;20028;-56
2022/08/21 00:25:34;;;;;;;5.10;2.85;;;;;;;;;;5071515;28;20488;-55
2022/08/21 00:28:01;;;;;;;7.88;2.97;;;;;;;;;;5061387;28;20032;-56
2022/08/21 00:30:27;;;;;;;5.30;2.85;;;;;;;;;;5051591;28;20074;-56
2022/08/21 00:32:54;;;;;;;6.43;2.85;;;;;;;;;;5067153;28;20023;-56
2022/08/21 00:35:24;;;;;;;5.53;3.00;;;;;;;;;;5057041;28;20531;-56
2022/08/21 00:37:49;;;;;;;6.93;3.17;;;;;;;;;;5061887;28;20033;-56
2022/08/21 00:40:20;;;;;;;8.55;3.60;;;;;;;;;;5051557;28;20041;-56
2022/08/21 00:42:46;;;;;;;4.40;2.88;;;;;;;;;;5066415;28;20024;-56
2022/08/21 00:45:11;;;;;;;6.78;3.08;;;;;;;;;;5065223;28;20028;-57
2022/08/21 00:47:38;;;;;;;6.70;2.97;;;;;;;;;;5051622;28;20028;-56
2022/08/21 00:50:06;;;;;;;5.32;2.97;;;;;;;;;;5051495;28;20029;-57
2022/08/21 00:52:33;;;;;;;7.13;3.05;;;;;;;;;;5051620;28;20021;-56
2022/08/21 00:55:00;;;;;;;6.50;2.85;;;;;;;;;;5066143;28;20021;-55
2022/08/21 00:57:30;;;;;;;4.93;2.97;;;;;;;;;;5060441;28;20016;-56
2022/08/21 00:59:57;;;;;;;;;;;;;;;;;;5057909;28;20021;-55
2022/08/21 01:02:22;;;;;;;6.90;3.13;;;;;;;;;;5050782;28;19995;-56
2022/08/21 01:04:48;;;;;;;5.93;3.13;;;;;;;;;;5051196;28;20445;-55
2022/08/21 01:07:14;;;;;;;6.78;3.08;;;;;;;;;;5051310;28;20094;-56
2022/08/21 01:09:40;;;;;;;5.30;3.00;;;;;;;;;;5051239;28;20506;-56
2022/08/21 01:12:06;;;;;;;6.22;3.20;;;;;;;;;;5051349;28;20086;-56
2022/08/21 01:14:32;;;;;;;5.95;3.00;;;;;;;;;;5070243;28;20020;-56
2022/08/21 01:17:00;;;;;;;6.40;3.33;;;;;;;;;;5063476;28;20027;-56
2022/08/21 01:19:26;;;;;;;5.28;3.17;;;;;;;;;;5051022;28;20021;-57
2022/08/21 01:21:53;;;;;;;7.78;3.20;;;;;;;;;;5066316;28;20390;-56
2022/08/21 01:24:19;;;;;;;6.38;3.00;;;;;;;;;;5054617;28;20039;-57
2022/08/21 01:26:45;;;;;;;6.20;3.10;;;;;;;;;;5063532;28;20029;-57
2022/08/21 01:29:35;;;;;;;5.55;2.90;;;;;;;;;;5061940;28;20107;-56
2022/08/21 01:32:14;;;;;;;3.35;2.60;;;;;;;;;;5053612;28;20120;-56
2022/08/21 01:34:43;;;;;;;5.13;3.10;;;;;;;;;;5057498;28;20493;-56
2022/08/21 01:37:10;;;;;;;6.80;3.20;;;;;;;;;;5061970;28;20502;-56
2022/08/21 01:39:37;;;;;;;6.25;3.17;;;;;;;;;;5057696;28;20029;-56
2022/08/21 01:42:03;;;;;;;5.75;3.17;;;;;;;;;;5057959;28;20129;-57
2022/08/21 01:44:28;;;;;;;4.68;2.85;;;;;;;;;;5066507;28;20056;-56
2022/08/21 01:46:55;;;;;;;5.60;3.00;;;;;;;;;;5066207;28;20063;-56
2022/08/21 01:49:20;;;;;;;5.80;2.75;;;;;;;;;;5074475;28;20028;-56
2022/08/21 01:51:46;;;;;;;6.90;3.15;;;;;;;;;;5069940;28;20025;-56
2022/08/21 01:54:11;;;;;;;7.53;3.40;;;;;;;;;;5061293;28;20405;-57
2022/08/21 01:56:43;;;;;;;5.30;3.42;;;;;;;;;;5064093;28;20013;-56
2022/08/21 01:59:08;;;;;;;7.28;3.20;;;;;;;;;;5069202;28;20035;-55
2022/08/21 02:01:34;;;;;;;5.78;2.95;;;;;;;;;;5065167;28;20041;-56
2022/08/21 02:04:00;;;;;;;6.40;3.20;;;;;;;;;;5054011;28;20024;-56
2022/08/21 02:06:27;;;;;;;5.43;3.35;;;;;;;;;;5054459;28;20060;-55
2022/08/21 02:08:52;;;;;;;7.85;3.10;;;;;;;;;;5068793;28;20035;-56
2022/08/21 02:11:18;;;;;;;4.72;3.00;;;;;;;;;;5071850;28;20036;-57
2022/08/21 02:13:43;;;;;;;7.40;3.50;;;;;;;;;;5059419;28;20427;-56
2022/08/21 02:16:09;;;;;;;7.95;3.33;;;;;;;;;;5064721;28;20016;-56
2022/08/21 02:18:35;;;;;;;4.72;3.28;;;;;;;;;;5067243;28;20409;-56
2022/08/21 02:21:01;;;;;;;7.47;3.30;;;;;;;;;;5056865;28;20037;-56
2022/08/21 02:23:26;;;;;;;6.30;3.40;;;;;;;;;;5058013;28;20028;-56
2022/08/21 02:25:52;;;;;;;7.43;3.38;;;;;;;;;;5065527;28;20032;-55
2022/08/21 02:28:17;;;;;;;8.52;3.70;;;;;;;;;;5065951;28;20036;-56
2022/08/21 02:30:46;;;;;;;6.63;3.63;;;;;;;;;;5057719;28;20032;-56
2022/08/21 02:33:12;;;;;;;5.78;3.35;;;;;;;;;;5052862;28;20446;-56
2022/08/21 02:35:41;;;;;;;5.18;3.22;;;;;;;;;;5054096;28;20027;-55
2022/08/21 02:38:11;;;;;;;6.05;3.75;;;;;;;;;;5053742;28;20033;-56
2022/08/21 02:40:39;;;;;;;4.43;3.53;;;;;;;;;;5054131;28;20091;-56
2022/08/21 02:43:06;;;;;;;10.00;4.28;;;;;;;;;;5071035;28;20039;-56
2022/08/21 02:45:33;;;;;;;9.65;3.58;;;;;;;;;;5072282;28;20024;-56
2022/08/21 02:48:03;;;;;;;5.88;2.95;;;;;;;;;;5059683;28;20297;-56
2022/08/21 02:50:30;;;;;;;;;;;;;;;;;;5064817;28;20020;-56
2022/08/21 02:52:56;;;;;;;4.68;3.05;;;;;;;;;;5057085;28;19908;-56
2022/08/21 02:55:25;;;;;;;7.25;3.38;;;;;;;;;;5064734;28;20078;-56
2022/08/21 02:57:50;;;;;;;;;;;;;;;;;;5053479;28;20029;-56
2022/08/21 03:00:16;;;;;;;5.72;3.63;;;;;;;;;;5069883;28;20380;-56
2022/08/21 03:02:42;;;;;;;7.80;3.58;;;;;;;;;;5068384;28;20098;-55
2022/08/21 03:05:10;;;;;;;4.63;3.28;;;;;;;;;;5061163;28;20032;-56
2022/08/21 03:07:37;;;;;;;5.82;3.53;;;;;;;;;;5073453;28;20024;-56
2022/08/21 03:10:04;;;;;;;8.88;3.53;;;;;;;;;;5057038;28;20033;-56
2022/08/21 03:12:42;;;;;;;4.65;3.40;;;;;;;;;;5056574;28;20032;-56
2022/08/21 03:15:11;;;;;;;6.40;3.80;;;;;;;;;;5063376;28;20024;-56
2022/08/21 03:17:37;;;;;;;5.30;3.60;;;;;;;;;;5053271;28;20025;-56
2022/08/21 03:20:05;;;;;;;7.03;3.47;;;;;;;;;;5053011;28;20082;-56
2022/08/21 03:22:31;;;;;;;6.32;3.90;;;;;;;;;;5057478;28;20027;-56
2022/08/21 03:24:57;;;;;;;5.30;3.28;;;;;;;;;;5071696;28;20036;-56
2022/08/21 03:27:24;;;;;;;7.43;3.85;;;;;;;;;;5059463;28;20529;-56
2022/08/21 03:29:49;;;;;;;5.78;3.85;;;;;;;;;;5052558;28;20025;-55
2022/08/21 03:32:15;;;;;;;4.40;3.33;;;;;;;;;;5056495;28;20557;-56
2022/08/21 03:34:40;;;;;;;6.72;3.80;;;;;;;;;;5064328;28;20104;-56
2022/08/21 03:37:07;;;;;;;7.80;3.67;;;;;;;;;;5064821;28;20348;-56
2022/08/21 03:39:34;;;;;;;4.40;3.67;;;;;;;;;;5072351;28;20043;-56
2022/08/21 03:41:59;;;;;;;6.30;3.88;;;;;;;;;;5055375;28;20138;-56
2022/08/21 03:44:28;;;;;;;8.02;3.70;;;;;;;;;;5064403;28;20103;-57
2022/08/21 03:46:53;;;;;;;5.10;3.53;;;;;;;;;;5052574;28;20025;-57
2022/08/21 03:49:18;;;;;;;5.22;3.63;;;;;;;;;;5052307;28;20033;-57
2022/08/21 03:51:44;;;;;;;8.18;3.60;;;;;;;;;;5051662;28;20421;-57
2022/08/21 03:54:09;;;;;;;6.97;3.40;;;;;;;;;;5059087;28;20039;-56
2022/08/21 03:56:35;;;;;;;9.07;3.67;;;;;;;;;;5072738;28;20016;-56
2022/08/21 03:59:02;;;;;;;7.88;3.70;;;;;;;;;;5071687;28;20043;-56
2022/08/21 04:01:27;;;;;;;7.22;3.45;;;;;;;;;;5068621;28;20028;-56
2022/08/21 04:03:53;;;;;;;9.00;3.20;;;;;;;;;;5051955;28;20548;-56
2022/08/21 04:06:18;;;;;;;5.35;3.17;;;;;;;;;;5052210;28;20390;-56
2022/08/21 04:08:43;;;;;;;5.95;3.20;;;;;;;;;;5050816;28;20029;-56
2022/08/21 04:11:12;;;;;;;7.75;3.70;;;;;;;;;;5068184;28;20068;-56
2022/08/21 04:13:38;;;;;;;6.68;3.42;;;;;;;;;;5050955;28;20053;-56
2022/08/21 04:16:04;;;;;;;12.00;3.67;;;;;;;;;;5060903;28;20043;-56
2022/08/21 04:18:29;;;;;;;7.80;3.65;;;;;;;;;;5071817;28;20020;-56
2022/08/21 04:20:57;;;;;;;8.27;3.60;;;;;;;;;;5071460;28;20107;-56
2022/08/21 04:23:23;;;;;;;5.18;3.80;;;;;;;;;;5055395;28;20063;-56
2022/08/21 04:25:48;;;;;;;7.95;3.22;;;;;;;;;;5063236;28;20498;-56
2022/08/21 04:28:14;;;;;;;7.63;3.78;;;;;;;;;;5051254;28;20053;-56
2022/08/21 04:30:39;;;;;;;7.13;3.90;;;;;;;;;;5067609;28;20115;-56
2022/08/21 04:33:05;;;;;;;8.88;3.28;;;;;;;;;;5067479;28;20021;-56
2022/08/21 04:35:31;;;;;;;6.25;4.00;;;;;;;;;;5059261;28;20029;-56
2022/08/21 04:37:57;;;;;;;6.65;3.78;;;;;;;;;;5060362;28;20094;-57
2022/08/21 04:40:25;;;;;;;6.82;3.97;;;;;;;;;;5066568;28;20029;-56
2022/08/21 04:42:51;;;;;;;7.65;4.00;;;;;;;;;;5067317;28;20016;-55
2022/08/21 04:45:21;;;;;;;8.98;4.43;;;;;;;;;;5071714;28;20403;-56
2022/08/21 04:47:52;;;;;;;6.57;3.90;;;;;;;;;;5071409;28;20474;-56
2022/08/21 04:50:18;;;;;;;9.15;4.00;;;;;;;;;;5055892;28;20047;-56
2022/08/21 04:52:44;;;;;;;5.70;3.40;;;;;;;;;;5070129;28;20107;-56
2022/08/21 04:55:10;;;;;;;6.50;3.70;;;;;;;;;;5071485;28;20111;-56
2022/08/21 04:57:37;;;;;;;7.93;4.00;;;;;;;;;;5071344;28;20214;-56
2022/08/21 05:00:04;;;;;;;7.80;3.58;;;;;;;;;;5055795;28;20029;-56
2022/08/21 05:02:32;;;;;;;7.45;3.75;;;;;;;;;;5053458;28;20028;-56
2022/08/21 05:04:58;;;;;;;5.45;4.20;;;;;;;;;;5071339;28;20028;-56
2022/08/21 05:07:27;;;;;;;8.80;4.03;;;;;;;;;;5060243;28;20029;-56
2022/08/21 05:09:53;;;;;;;9.57;4.13;;;;;;;;;;5051199;28;20116;-55
2022/08/21 05:12:19;;;;;;;7.38;4.22;;;;;;;;;;5066757;28;20028;-57
2022/08/21 05:14:44;;;;;;;9.50;3.55;;;;;;;;;;5060728;28;20477;-58
2022/08/21 05:17:10;;;;;;;7.60;4.00;;;;;;;;;;5075412;28;20111;-57
2022/08/21 05:19:36;;;;;;;6.60;3.95;;;;;;;;;;5066001;28;20020;-58
2022/08/21 05:22:01;;;;;;;7.10;4.18;;;;;;;;;;5056441;28;20021;-58
2022/08/21 05:24:27;;;;;;;6.07;3.67;;;;;;;;;;5075932;28;20035;-57
2022/08/21 05:26:53;;;;;;;6.70;4.00;;;;;;;;;;5065960;28;20025;-57
2022/08/21 05:29:18;;;;;;;8.30;3.88;;;;;;;;;;5067654;28;20032;-58
2022/08/21 05:31:45;;;;;;;5.85;4.03;;;;;;;;;;5074192;28;20052;-57
2022/08/21 05:34:12;;;;;;;5.13;3.60;;;;;;;;;;5074913;28;20121;-57
2022/08/21 05:36:37;;;;;;;9.25;3.75;;;;;;;;;;5074973;28;20426;-57
2022/08/21 05:39:03;;;;;;;7.50;4.10;;;;;;;;;;5074790;28;20063;-57
2022/08/21 05:41:29;;;;;;;10.40;4.18;;;;;;;;;;5058020;28;20033;-57
2022/08/21 05:43:54;;;;;;;8.60;4.30;;;;;;;;;;5057717;28;20149;-57
2022/08/21 05:46:19;;;;;;;6.90;4.10;;;;;;;;;;5074823;28;20517;-57
2022/08/21 05:48:45;;;;;;;5.10;4.30;;;;;;;;;;5063396;28;20039;-57
2022/08/21 05:51:13;;;;;;;10.95;4.68;;;;;;;;;;5054480;28;20032;-58
2022/08/21 05:53:39;;;;;;;6.13;4.25;;;;;;;;;;5056687;28;20043;-58
2022/08/21 05:56:06;;;;;;;7.15;4.32;;;;;;;;;;5067966;28;20627;-57
2022/08/21 05:58:33;;;;;;;11.00;5.07;;;;;;;;;;5064793;28;20024;-57
2022/08/21 06:00:59;;;;;;;8.60;4.40;;;;;;;;;;5059775;28;20040;-57
2022/08/21 06:03:31;;;;;;;8.00;4.97;;;;;;;;;;5055844;28;20078;-57
2022/08/21 06:05:57;;;;;;;9.30;5.22;;;;;;;;;;5067407;28;20108;-57
2022/08/21 06:08:23;;;;;;;9.35;4.75;;;;;;;;;;5065071;28;20032;-57
2022/08/21 06:10:50;;;;;;;9.70;4.25;;;;;;;;;;5074319;28;20031;-57
2022/08/21 06:13:18;;;;;;;9.25;4.60;;;;;;;;;;5054372;28;20024;-57
2022/08/21 06:15:43;;;;;;;9.02;4.82;;;;;;;;;;5054225;28;20047;-57
2022/08/21 06:18:10;;;;;;;9.98;5.13;;;;;;;;;;5064227;28;20474;-56
2022/08/21 06:20:35;;;;;;;7.72;5.05;;;;;;;;;;5060013;28;20279;-58
2022/08/21 06:23:01;;;;;;;10.15;5.20;;;;;;;;;;5069821;28;20055;-57
2022/08/21 06:25:28;;;;;;;7.45;4.15;;;;;;;;;;5059045;28;20029;-57
2022/08/21 06:27:59;;;;;;;9.73;4.40;;;;;;;;;;5063891;28;20021;-58
2022/08/21 06:30:25;;;;;;;9.45;5.45;;;;;;;;;;5068165;28;20075;-57
2022/08/21 06:32:50;;;;;;;10.05;5.50;;;;;;;;;;5054933;28;20466;-57
2022/08/21 06:35:15;;;;;;;12.93;4.80;;;;;;;;;;5059364;28;20413;-57
2022/08/21 06:37:41;;;;;;;9.68;5.13;;;;;;;;;;5073923;28;20032;-57
2022/08/21 06:40:07;;;;;;;10.05;5.00;;;;;;;;;;5073754;28;20032;-57
2022/08/21 06:42:32;;;;;;;10.25;4.55;;;;;;;;;;5072947;28;20039;-57
2022/08/21 06:44:58;;;;;;;9.55;4.55;;;;;;;;;;5073136;28;20028;-57
2022/08/21 06:47:23;;;;;;;7.40;4.93;;;;;;;;;;5073550;28;20059;-57
2022/08/21 06:49:49;;;;;;;10.25;4.60;;;;;;;;;;5073476;28;20393;-58
2022/08/21 06:52:14;;;;;;;8.15;4.90;;;;;;;;;;5056886;28;20021;-57
2022/08/21 06:54:40;;;;;;;10.77;4.60;;;;;;;;;;5053457;28;20329;-58
2022/08/21 06:57:06;;;;;;;8.13;4.07;;;;;;;;;;5053471;28;20033;-57
2022/08/21 06:59:32;;;;;;;12.65;5.03;;;;;;;;;;5062422;28;20017;-56
2022/08/21 07:01:58;;;;;;;10.25;4.82;;;;;;;;;;5057491;28;20025;-57
2022/08/21 07:04:24;;;;;;;7.40;4.40;;;;;;;;;;5055799;28;20029;-57
2022/08/21 07:06:49;;;;;;;9.38;4.85;;;;;;;;;;5066861;28;20482;-57
2022/08/21 07:09:15;;;;;;;8.68;4.57;;;;;;;;;;5051947;28;20078;-57
2022/08/21 07:11:40;;;;;;;8.82;4.57;;;;;;;;;;5066236;28;20048;-57
2022/08/21 07:14:06;;;;;;;8.00;4.00;;;;;;;;;;5054917;28;20032;-57
2022/08/21 07:16:31;;;;;;;8.73;4.25;;;;;;;;;;5053056;28;20538;-57
2022/08/21 07:18:57;;;;;;;7.18;4.60;;;;;;;;;;5053040;28;20437;-56
2022/08/21 07:21:22;;;;;;;5.32;4.00;;;;;;;;;;5052368;28;20390;-57
2022/08/21 07:23:50;;;;;;;5.90;4.07;;;;;;;;;;5068913;28;20024;-57
2022/08/21 07:26:22;;;;;;;8.77;4.80;;;;;;;;;;5052695;28;20482;-56
2022/08/21 07:28:48;;;;;;;9.30;5.18;;;;;;;;;;5052440;28;20137;-57
2022/08/21 07:31:16;;;;;;;9.82;5.57;;;;;;;;;;5065407;28;20056;-57
2022/08/21 07:33:41;;;;;;;14.23;4.68;;;;;;;;;;5055677;28;20048;-57
2022/08/21 07:36:07;;;;;;;10.05;4.20;;;;;;;;;;5067263;28;20052;-56
2022/08/21 07:38:33;;;;;;;10.27;4.10;;;;;;;;;;5052762;28;20080;-56
2022/08/21 07:41:01;;;;;;;8.50;4.30;;;;;;;;;;5052658;28;20033;-57
2022/08/21 07:43:28;;;;;;;8.82;4.85;;;;;;;;;;5067503;28;20075;-57
2022/08/21 07:45:57;;;;;;;8.77;4.63;;;;;;;;;;5072339;28;20036;-57
2022/08/21 07:48:23;;;;;;;8.25;4.32;;;;;;;;;;5063946;28;20032;-57
2022/08/21 07:50:49;;;;;;;13.10;4.13;;;;;;;;;;5056421;28;20033;-57
2022/08/21 07:53:15;;;;;;;9.35;5.03;;;;;;;;;;5051332;28;20021;-56
2022/08/21 07:55:41;;;;;;;7.03;4.28;;;;;;;;;;5072208;28;20070;-56
2022/08/21 07:58:06;;;;;;;9.73;4.80;;;;;;;;;;5064039;28;20024;-56
2022/08/21 08:00:32;;;;;;;7.78;3.90;;;;;;;;;;5063636;28;20024;-57
2022/08/21 08:02:58;;;;;;;9.13;4.75;;;;;;;;;;5056090;28;20048;-57
2022/08/21 08:05:28;;;;;;;9.95;4.55;;;;;;;;;;5068216;28;20032;-57
2022/08/21 08:07:53;;;;;;;;;;;;;;;;;;5052562;28;20021;-56
2022/08/21 08:10:19;;;;;;;9.57;4.90;;;;;;;;;;5052139;28;19919;-57
2022/08/21 08:12:46;;;;;;;10.07;4.50;;;;;;;;;;5050749;28;20031;-58
2022/08/21 08:15:15;;;;;;;9.70;4.60;;;;;;;;;;5052243;28;20171;-57
2022/08/21 08:17:40;;;;;;;9.30;4.85;;;;;;;;;;5051926;28;20025;-56
2022/08/21 08:20:08;;;;;;;11.65;5.30;;;;;;;;;;5062410;28;20032;-56
2022/08/21 08:22:35;;;;;;;10.10;4.80;;;;;;;;;;5056575;28;20032;-56
2022/08/21 08:25:01;;;;;;;10.48;5.03;;;;;;;;;;5070089;28;20028;-56
2022/08/21 08:27:27;;;;;;;11.50;5.32;;;;;;;;;;5065465;28;20064;-56
2022/08/21 08:29:52;;;;;;;8.38;4.50;;;;;;;;;;5061127;28;20067;-57
2022/08/21 08:32:19;;;;;;;10.80;5.97;;;;;;;;;;5057166;28;20024;-57
2022/08/21 08:34:46;;;;;;;7.18;5.07;;;;;;;;;;5069265;28;20028;-56
2022/08/21 08:37:12;;;;;;;12.93;4.60;;;;;;;;;;5071675;28;20048;-57
2022/08/21 08:39:37;;;;;;;10.10;4.55;;;;;;;;;;5071065;28;20075;-56
2022/08/21 08:42:06;;;;;;;12.23;4.82;;;;;;;;;;5057471;28;20028;-56
2022/08/21 08:44:31;;;;;;;6.00;4.40;;;;;;;;;;5063657;28;20052;-56
2022/08/21 08:46:58;;;;;;;9.73;4.72;;;;;;;;;;5051515;28;20087;-57
2022/08/21 08:49:36;;;;;;;10.10;4.82;;;;;;;;;;5051536;28;20029;-56
2022/08/21 08:52:22;;;;;;;12.95;5.10;;;;;;;;;;5050654;28;20486;-57
2022/08/21 08:55:16;;;;;;;9.15;4.72;;;;;;;;;;5056059;28;20149;-57
2022/08/21 08:57:46;;;;;;;9.40;4.95;;;;;;;;;;5071748;28;20090;-57
2022/08/21 09:00:16;;;;;;;9.30;4.80;;;;;;;;;;5071163;28;20094;-57
2022/08/21 09:02:44;;;;;;;9.15;5.03;;;;;;;;;;5065125;28;20071;-57
2022/08/21 09:05:22;;;;;;;11.27;5.43;;;;;;;;;;5051156;28;20028;-57
2022/08/21 09:07:54;;;;;;;8.93;4.60;;;;;;;;;;5065879;28;20032;-57
2022/08/21 09:10:22;;;;;;;11.60;4.65;;;;;;;;;;5069949;28;20282;-57
2022/08/21 09:13:05;;;;;;;8.82;4.70;;;;;;;;;;5070134;28;20024;-57
2022/08/21 09:15:34;;;;;;;13.25;5.00;;;;;;;;;;5058011;28;20041;-58
2022/08/21 09:18:20;;;;;;;7.50;4.72;;;;;;;;;;5067409;28;20444;-57
2022/08/21 09:21:00;;;;;;;8.82;4.60;;;;;;;;;;5051231;28;20025;-57
2022/08/21 09:23:31;;;;;;;9.43;4.53;;;;;;;;;;5064450;28;20111;-58
2022/08/21 09:26:16;;;;;;;7.70;4.80;;;;;;;;;;5071150;28;20039;-57
2022/08/21 09:28:43;;;;;;;8.93;4.20;;;;;;;;;;5070798;28;20027;-57
2022/08/21 09:31:38;;;;;;;8.27;4.35;;;;;;;;;;5071202;28;20025;-58
2022/08/21 09:34:12;;;;;;;7.53;4.60;;;;;;;;;;5055425;28;20032;-57
2022/08/21 09:36:46;;;;;;;8.35;4.78;;;;;;;;;;5071279;28;20433;-58
2022/08/21 09:39:21;;;;;;;10.27;5.03;;;;;;;;;;5071129;28;20059;-57
2022/08/21 09:41:56;;;;;;;8.25;4.40;;;;;;;;;;5051146;28;20049;-57
2022/08/21 09:44:30;;;;;;;11.40;4.50;;;;;;;;;;5054571;28;20017;-57
2022/08/21 09:46:56;;;;;;;9.45;4.32;;;;;;;;;;5063898;28;20097;-57
2022/08/21 09:49:33;;;;;;;9.18;4.72;;;;;;;;;;5071067;28;20098;-57
2022/08/21 09:52:00;;;;;;;12.82;4.13;;;;;;;;;;5070236;28;20024;-57
2022/08/21 09:54:38;;;;;;;8.65;4.53;;;;;;;;;;5060841;28;20028;-57
2022/08/21 09:59:54;;;;;;;10.73;5.00;;;;;;;;;;5052261;28;20089;-57
2022/08/21 10:02:30;;;;;;;8.75;4.30;;;;;;;;;;5053660;28;20033;-57
2022/08/21 10:04:59;;;;;;;11.50;4.70;;;;;;;;;;5054408;28;20029;-57
2022/08/21 10:07:27;;;;;;;13.10;4.60;;;;;;;;;;5056330;28;20432;-57
2022/08/21 10:10:08;;;;;;;8.40;5.00;;;;;;;;;;5066959;28;20047;-58
2022/08/21 10:12:52;;;;;;;11.77;4.88;;;;;;;;;;5053647;28;20082;-57
2022/08/21 10:15:21;;;;;;;9.48;4.60;;;;;;;;;;5057786;28;20397;-57
2022/08/21 10:18:01;;;;;;;7.07;4.50;;;;;;;;;;5068761;28;21343;-58
2022/08/21 10:20:40;;;;;;;7.78;4.22;;;;;;;;;;5074167;28;20031;-57
2022/08/21 10:23:15;;;;;;;11.73;4.70;;;;;;;;;;5073313;28;20067;-58
2022/08/21 10:25:50;;;;;;;8.13;4.18;;;;;;;;;;5073955;28;20066;-57
2022/08/21 10:28:21;;;;;;;8.18;4.10;;;;;;;;;;5073479;28;20021;-58
2022/08/21 10:30:52;;;;;;;7.65;4.40;;;;;;;;;;5057747;28;20483;-57
2022/08/21 10:33:32;;;;;;;8.48;4.40;;;;;;;;;;5073313;28;20028;-57
2022/08/21 10:36:10;;;;;;;9.65;4.20;;;;;;;;;;5074035;28;20440;-57
2022/08/21 10:38:48;;;;;;;6.97;4.13;;;;;;;;;;5073608;28;20504;-57
2022/08/21 10:41:13;;;;;;;6.85;4.10;;;;;;;;;;5073775;28;20107;-58
2022/08/21 10:43:59;;;;;;;8.40;4.47;;;;;;;;;;5068998;28;20560;-57
2022/08/21 10:46:46;;;;;;;16.77;4.50;;;;;;;;;;5056819;28;20029;-57
2022/08/21 10:49:25;;;;;;;9.73;4.70;;;;;;;;;;5053604;28;20021;-57
2022/08/21 10:52:29;;;;;;;6.13;3.95;;;;;;;;;;5065790;28;20032;-58
2022/08/21 10:55:09;;;;;;;6.18;3.85;;;;;;;;;;5073303;28;20039;-58
2022/08/21 10:58:00;;;;;;;6.18;4.00;;;;;;;;;;5062424;28;20036;-57
2022/08/21 11:00:50;;;;;;;9.45;4.03;;;;;;;;;;5052026;28;20037;-58
2022/08/21 11:03:28;;;;;;;7.03;3.97;;;;;;;;;;5062277;28;20049;-58
2022/08/21 11:05:59;;;;;;;8.27;4.10;;;;;;;;;;5073397;28;20379;-58
2022/08/21 11:08:37;;;;;;;6.82;3.67;;;;;;;;;;5054510;28;20064;-58
2022/08/21 11:11:21;;;;;;;7.13;3.83;;;;;;;;;;5053161;28;20032;-58
2022/08/21 11:13:56;;;;;;;9.23;3.95;;;;;;;;;;5052665;28;20070;-58
2022/08/21 11:16:36;;;;;;;6.50;3.75;;;;;;;;;;5057607;28;20048;-58
2022/08/21 11:19:07;;;;;;;5.72;3.28;;;;;;;;;;5062673;28;20040;-58
2022/08/21 11:21:48;;;;;;;7.93;4.28;;;;;;;;;;5052661;28;20021;-58
2022/08/21 11:24:31;;;;;;;5.70;3.63;;;;;;;;;;5057276;28;20036;-58
2022/08/21 11:27:16;;;;;;;8.90;3.95;;;;;;;;;;5072942;28;20016;-58
2022/08/21 11:29:47;;;;;;;6.28;3.90;;;;;;;;;;5072492;28;20108;-58
2022/08/21 11:32:38;;;;;;;6.10;3.55;;;;;;;;;;5072126;28;20031;-58
2022/08/21 11:35:21;;;;;;;5.82;3.63;;;;;;;;;;5059769;28;20027;-58
2022/08/21 11:38:03;;;;;;;6.78;3.30;;;;;;;;;;5052656;28;20021;-58
2022/08/21 11:40:49;;;;;;;6.28;3.33;;;;;;;;;;5053163;28;20098;-58
2022/08/21 11:43:33;;;;;;;5.00;3.08;;;;;;;;;;5066420;28;20048;-58
2022/08/21 11:46:46;;;;;;;8.10;3.20;;;;;;;;;;5058000;28;20025;-58
2022/08/21 11:49:23;;;;;;;5.93;3.20;;;;;;;;;;5090219;28;20047;-58
2022/08/21 11:52:08;;;;;;;7.03;3.10;;;;;;;;;;5074113;28;20042;-58
2022/08/21 11:54:34;;;;;;;7.85;3.63;;;;;;;;;;5060894;28;20470;-58
2022/08/21 11:57:14;;;;;;;8.90;3.60;;;;;;;;;;5067307;28;20103;-58
2022/08/21 11:59:51;;;;;;;5.28;3.47;;;;;;;;;;5071535;28;20027;-58
2022/08/21 12:02:21;;;;;;;7.32;3.50;;;;;;;;;;5071468;28;20070;-58
2022/08/21 12:04:54;;;;;;;5.47;3.33;;;;;;;;;;5072038;28;20036;-58
2022/08/21 12:07:33;;;;;;;6.15;3.60;;;;;;;;;;5055707;28;20024;-58
2022/08/21 12:10:00;;;;;;;5.70;3.58;;;;;;;;;;5063202;28;20052;-59
2022/08/21 12:12:33;;;;;;;7.80;3.47;;;;;;;;;;5051228;28;20032;-58
2022/08/21 12:15:20;;;;;;;5.25;3.17;;;;;;;;;;5052728;28;20112;-58
2022/08/21 12:18:06;;;;;;;7.85;3.45;;;;;;;;;;5072009;28;20518;-58
2022/08/21 12:20:32;;;;;;;6.95;3.50;;;;;;;;;;5057077;28;20029;-59
2022/08/21 12:23:03;;;;;;;4.22;3.30;;;;;;;;;;5068956;28;20501;-58
2022/08/21 12:25:37;;;;;;;8.25;3.60;;;;;;;;;;5072017;28;20030;-58
2022/08/21 12:28:09;;;;;;;5.15;3.40;;;;;;;;;;5071547;28;20028;-58
2022/08/21 12:30:39;;;;;;;4.90;3.17;;;;;;;;;;5071695;28;20016;-58
2022/08/21 12:33:19;;;;;;;8.25;4.00;;;;;;;;;;5050792;28;20023;-59
2022/08/21 12:35:49;;;;;;;6.43;3.72;;;;;;;;;;5062148;28;20030;-58
2022/08/21 12:38:20;;;;;;;4.75;2.90;;;;;;;;;;5056924;28;20095;-59
2022/08/21 12:40:54;;;;;;;6.35;3.42;;;;;;;;;;5054544;28;20389;-58
2022/08/21 12:43:24;;;;;;;6.82;3.30;;;;;;;;;;5066226;28;20049;-58
2022/08/21 12:45:50;;;;;;;6.25;3.10;;;;;;;;;;5071410;28;20032;-59
2022/08/21 12:48:18;;;;;;;7.05;3.75;;;;;;;;;;5071154;28;20020;-59
2022/08/21 12:50:49;;;;;;;6.95;3.28;;;;;;;;;;5071583;28;20024;-58
2022/08/21 12:53:38;;;;;;;5.63;3.33;;;;;;;;;;5061869;28;20031;-59
2022/08/21 12:56:09;;;;;;;7.00;3.50;;;;;;;;;;5051406;28;20494;-58
2022/08/21 12:58:34;;;;;;;4.35;3.40;;;;;;;;;;5051199;28;20021;-58
2022/08/21 13:01:04;;;;;;;5.97;3.33;;;;;;;;;;5051175;28;20529;-59
2022/08/21 13:03:31;;;;;;;8.60;3.17;;;;;;;;;;5050220;28;20029;-59
2022/08/21 13:05:58;;;;;;;4.72;3.08;;;;;;;;;;5067419;28;20029;-59
2022/08/21 13:08:25;;;;;;;8.15;3.40;;;;;;;;;;5067315;28;20029;-59
2022/08/21 13:10:59;;;;;;;6.22;3.28;;;;;;;;;;5059210;28;20047;-59
2022/08/21 13:13:26;;;;;;;5.47;3.00;;;;;;;;;;5070212;28;20462;-59
2022/08/21 13:15:58;;;;;;;5.23;2.97;;;;;;;;;;5054911;28;20538;-58
2022/08/21 13:18:27;;;;;;;8.65;3.60;;;;;;;;;;5065890;28;20108;-58
2022/08/21 13:21:13;;;;;;;5.88;3.38;;;;;;;;;;5051582;28;20051;-59
2022/08/21 13:23:39;;;;;;;4.35;2.90;;;;;;;;;;5066730;28;20024;-59
2022/08/21 13:26:17;;;;;;;5.75;3.13;;;;;;;;;;5071168;28;20081;-58
2022/08/21 13:28:43;;;;;;;7.30;3.47;;;;;;;;;;5061387;28;20060;-58
2022/08/21 13:31:10;;;;;;;5.97;3.13;;;;;;;;;;5051132;28;20037;-58
2022/08/21 13:33:37;;;;;;;4.85;2.95;;;;;;;;;;5067385;28;20036;-58
2022/08/21 13:36:07;;;;;;;3.85;2.78;;;;;;;;;;5069899;28;20150;-59
2022/08/21 13:38:35;;;;;;;6.22;2.92;;;;;;;;;;5057815;28;20037;-59
2022/08/21 13:41:15;;;;;;;5.80;3.58;;;;;;;;;;5075080;28;20021;-59
2022/08/21 13:43:45;;;;;;;7.13;2.88;;;;;;;;;;5061297;28;20385;-59
2022/08/21 13:46:13;;;;;;;7.60;3.17;;;;;;;;;;5067263;28;20017;-59
2022/08/21 13:48:39;;;;;;;4.80;2.72;;;;;;;;;;5066224;28;20031;-59
2022/08/21 13:51:05;;;;;;;6.97;3.05;;;;;;;;;;5074739;28;20421;-59
2022/08/21 13:53:30;;;;;;;5.50;3.00;;;;;;;;;;5054730;28;20025;-59
2022/08/21 13:55:57;;;;;;;7.88;2.92;;;;;;;;;;5054751;28;20032;-59
2022/08/21 13:58:27;;;;;;;6.88;2.70;;;;;;;;;;5064633;28;20036;-59
2022/08/21 14:00:55;;;;;;;4.85;2.90;;;;;;;;;;5059276;28;20037;-59
2022/08/21 14:03:45;;;;;;;7.60;3.13;;;;;;;;;;5070720;28;20055;-59
2022/08/21 14:06:19;;;;;;;4.28;3.17;;;;;;;;;;5064533;28;20025;-58
2022/08/21 14:08:52;;;;;;;6.57;2.95;;;;;;;;;;5054428;28;20036;-59
2022/08/21 14:11:18;;;;;;;5.00;2.85;;;;;;;;;;5053657;28;20036;-59
2022/08/21 14:13:47;;;;;;;6.97;3.25;;;;;;;;;;5061070;28;20082;-59
2022/08/21 14:16:21;;;;;;;4.85;2.90;;;;;;;;;;5074349;28;20033;-59
2022/08/21 14:18:54;;;;;;;4.93;2.83;;;;;;;;;;5057679;28;20068;-59
2022/08/21 14:21:32;;;;;;;6.30;3.28;;;;;;;;;;5058546;28;20024;-59
2022/08/21 14:24:25;;;;;;;4.20;2.83;;;;;;;;;;5073984;28;20099;-59
2022/08/21 14:27:03;;;;;;;4.47;2.90;;;;;;;;;;5073450;28;20063;-58
2022/08/21 14:29:37;;;;;;;6.55;3.13;;;;;;;;;;5060981;28;20083;-58
2022/08/21 14:32:19;;;;;;;5.78;3.17;;;;;;;;;;5053041;28;20478;-58
2022/08/21 14:34:44;;;;;;;7.38;3.53;;;;;;;;;;5053998;28;20029;-58
2022/08/21 14:37:10;;;;;;;6.82;2.90;;;;;;;;;;5059990;28;20363;-59
2022/08/21 14:39:35;;;;;;;4.00;2.92;;;;;;;;;;5064051;28;20036;-59
2022/08/21 14:42:01;;;;;;;4.85;3.20;;;;;;;;;;5066646;28;20103;-59
2022/08/21 14:44:27;;;;;;;4.63;2.75;;;;;;;;;;5069261;28;20470;-59
2022/08/21 14:46:53;;;;;;;5.13;3.22;;;;;;;;;;5053325;28;20021;-59
2022/08/21 14:49:18;;;;;;;5.95;2.92;;;;;;;;;;5062528;28;20432;-59
2022/08/21 14:51:43;;;;;;;7.22;2.78;;;;;;;;;;5072905;28;20104;-59
2022/08/21 14:54:09;;;;;;;4.63;2.92;;;;;;;;;;5055700;28;20039;-59
2022/08/21 14:56:35;;;;;;;5.32;2.63;;;;;;;;;;5053957;28;20371;-59
2022/08/21 14:59:07;;;;;;;7.40;3.13;;;;;;;;;;5060663;28;20028;-58
2022/08/21 15:01:35;;;;;;;5.88;2.92;;;;;;;;;;5060167;28;20033;-58